Time;durP1;ratioP1;P1;durP2;ratioP2;P2;SDS_P1;SDS_P2;PMS_P1;PMS_P2;Temp;Humidity;BMP_temperature;BMP_pressure;BME280_temperature;BME280_humidity;BME280_pressure;Samples;Min_cycle;Max_cycle;Signal;HPM_P1;HPM_P2
2023/11/26 00:07:36;;;;;;;8.40;4.00;;;;;;;-2.49;81.88;97129.42;102588;1294;599483;-28
2023/11/26 00:10:06;;;;;;;5.80;3.00;;;;;;;-2.62;82.89;97133.87;104889;1266;61173;-27
2023/11/26 00:20:16;;;;;;;9.50;5.70;;;;;;;-0.97;79.55;97136.42;102698;1290;600068;-28
2023/11/26 00:22:45;;;;;;;4.50;3.10;;;;;;;-1.21;80.34;97133.69;105057;1265;61060;-27
2023/11/26 00:25:13;;;;;;;6.50;4.40;;;;;;;-1.46;81.92;97132.38;104853;1271;61226;-28
2023/11/26 00:27:40;;;;;;;7.10;4.30;;;;;;;-1.62;82.74;97128.41;104877;1272;72245;-27
2023/11/26 00:30:10;;;;;;;8.40;5.00;;;;;;;-1.66;83.17;97129.71;104869;1271;73342;-27
2023/11/26 00:32:38;;;;;;;6.30;3.60;;;;;;;-1.74;83.28;97126.73;104677;1273;72655;-27
2023/11/26 00:35:06;;;;;;;5.50;2.80;;;;;;;-1.84;83.43;97127.93;102427;1263;61864;-27
2023/11/26 00:45:13;;;;;;;8.30;4.70;;;;;;;-0.52;79.27;97133.61;102593;1292;600025;-26
2023/11/26 00:47:40;;;;;;;6.70;3.90;;;;;;;-0.83;79.86;97137.55;104820;1267;61183;-26
2023/11/26 00:50:10;;;;;;;7.60;4.60;;;;;;;-1.05;80.69;97132.33;105045;1267;61186;-26
2023/11/26 00:52:38;;;;;;;8.60;4.50;;;;;;;-1.27;81.44;97134.08;104833;1267;73693;-26
2023/11/26 00:55:06;;;;;;;9.10;5.40;;;;;;;-1.45;82.66;97132.34;105071;1267;74307;-26
2023/11/26 00:57:34;;;;;;;6.80;3.70;;;;;;;-1.60;83.41;97128.98;108703;1266;72644;-27
2023/11/26 01:00:11;;;;;;;7.40;4.30;;;;;;;-1.14;83.43;97134.92;106207;1263;60337;-27
2023/11/26 01:02:38;;;;;;;6.80;4.10;;;;;;;-0.35;80.94;97135.96;108791;1263;70536;-27
2023/11/26 01:05:08;;;;;;;8.20;4.60;;;;;;;-0.15;79.13;97130.83;108904;1263;73016;-27
2023/11/26 01:07:36;;;;;;;7.70;4.60;;;;;;;-0.27;78.70;97134.34;108626;1263;72663;-27
2023/11/26 01:10:05;;;;;;;7.90;4.10;;;;;;;-0.45;79.03;97128.10;108793;1262;59259;-27
2023/11/26 01:12:32;;;;;;;7.60;4.40;;;;;;;-0.66;79.68;97124.73;108631;1268;60077;-27
2023/11/26 01:15:00;;;;;;;8.60;4.50;;;;;;;-0.84;80.51;97122.65;108717;1263;71921;-27
2023/11/26 01:17:28;;;;;;;6.70;4.30;;;;;;;-1.08;81.39;97119.41;108617;1263;74569;-27
2023/11/26 01:19:56;;;;;;;10.40;5.00;;;;;;;-1.23;82.12;97116.98;108701;1263;72643;-27
2023/11/26 01:22:27;;;;;;;5.10;3.00;;;;;;;-1.39;83.84;97110.84;108852;1262;60846;-27
2023/11/26 01:24:55;;;;;;;5.80;4.00;;;;;;;-0.88;83.18;97104.11;108852;1263;58761;-27
2023/11/26 01:27:23;;;;;;;8.40;4.70;;;;;;;-0.35;80.73;97099.46;108792;1263;72382;-27
2023/11/26 01:29:50;;;;;;;5.80;3.80;;;;;;;-0.26;79.88;97102.77;108962;1262;74307;-27
2023/11/26 01:32:18;;;;;;;6.70;4.00;;;;;;;-0.49;80.93;97104.45;108872;1263;71471;-27
2023/11/26 01:34:46;;;;;;;6.50;4.10;;;;;;;-0.77;82.31;97106.84;108929;1260;58741;-27
2023/11/26 01:37:13;;;;;;;6.70;4.70;;;;;;;-1.05;83.95;97106.77;108904;1262;59963;-27
2023/11/26 01:39:41;;;;;;;6.00;4.30;;;;;;;-1.19;84.85;97106.49;108823;1263;73099;-27
2023/11/26 01:42:09;;;;;;;6.50;4.30;;;;;;;-1.31;85.66;97104.73;108925;1263;73561;-27
2023/11/26 01:44:37;;;;;;;5.60;3.80;;;;;;;-0.91;84.80;97102.16;108754;1262;71502;-27
2023/11/26 01:47:05;;;;;;;6.10;4.00;;;;;;;-0.54;82.62;97101.77;108908;1260;60060;-27
2023/11/26 01:49:34;;;;;;;7.00;3.70;;;;;;;-0.44;81.25;97095.81;108781;1262;58699;-27
2023/11/26 01:52:03;;;;;;;6.50;4.10;;;;;;;-0.70;81.80;97092.41;108874;1262;72999;-27
2023/11/26 01:54:34;;;;;;;6.50;4.00;;;;;;;-0.73;81.83;97088.98;108805;1262;74601;-27
2023/11/26 01:57:04;;;;;;;6.00;3.40;;;;;;;-0.94;82.61;97085.66;108786;1262;72761;-27
2023/11/26 01:59:32;;;;;;;6.10;3.60;;;;;;;-1.13;83.05;97078.00;108799;1262;59336;-27
2023/11/26 02:02:00;;;;;;;6.70;2.90;;;;;;;-1.04;83.85;97076.24;108786;1263;60061;-27
2023/11/26 02:04:28;;;;;;;6.40;3.90;;;;;;;-0.64;81.65;97075.64;108889;1262;73076;-27
2023/11/26 02:06:56;;;;;;;4.10;2.60;;;;;;;-0.42;80.69;97068.71;108911;1262;73918;-27
2023/11/26 02:09:23;;;;;;;5.20;3.10;;;;;;;-0.50;80.69;97064.67;108771;1263;71110;-27
2023/11/26 02:11:51;;;;;;;5.70;3.80;;;;;;;-0.63;81.30;97067.56;108895;1261;58865;-27
2023/11/26 02:14:19;;;;;;;5.40;3.80;;;;;;;-0.73;82.00;97073.67;108799;1262;58750;-27
2023/11/26 02:16:49;;;;;;;8.20;4.50;;;;;;;-0.90;82.85;97068.00;108930;1262;73255;-27
2023/11/26 02:19:37;;;;;;;7.80;4.20;;;;;;;-1.04;83.91;97067.70;108778;1262;74473;-27
2023/11/26 02:22:07;;;;;;;8.60;4.20;;;;;;;-0.91;84.18;97069.61;108756;1262;71397;-27
2023/11/26 02:24:46;;;;;;;5.20;3.60;;;;;;;-0.19;81.92;97074.99;108738;1262;60024;-27
2023/11/26 02:27:14;;;;;;;5.40;3.60;;;;;;;0.11;79.87;97074.50;108785;1263;59998;-27
2023/11/26 02:29:41;;;;;;;5.60;3.60;;;;;;;0.10;79.45;97081.51;108816;1263;71982;-27
2023/11/26 02:32:09;;;;;;;7.30;4.00;;;;;;;-0.06;80.09;97083.33;108826;1263;74327;-27
2023/11/26 02:34:37;;;;;;;7.70;4.50;;;;;;;-0.26;80.76;97083.34;108829;1262;72661;-27
2023/11/26 02:37:05;;;;;;;5.10;3.60;;;;;;;-0.56;81.74;97088.56;108834;1263;59267;-27
2023/11/26 02:39:33;;;;;;;4.60;3.50;;;;;;;-0.74;82.79;97091.29;108752;1263;58751;-27
2023/11/26 02:42:01;;;;;;;8.90;4.50;;;;;;;-0.91;83.78;97086.44;108750;1263;73111;-27
2023/11/26 02:44:29;;;;;;;4.40;3.40;;;;;;;-0.80;84.53;97084.72;108870;1263;74371;-27
2023/11/26 02:46:57;;;;;;;6.80;3.50;;;;;;;-0.18;81.97;97076.09;108744;1263;71818;-27
2023/11/26 02:49:25;;;;;;;7.10;4.40;;;;;;;0.09;79.80;97070.34;109020;1259;60057;-27
2023/11/26 02:51:53;;;;;;;8.60;4.60;;;;;;;0.00;79.86;97065.62;109014;1260;58782;-27
2023/11/26 02:54:21;;;;;;;6.50;4.00;;;;;;;-0.13;80.33;97061.43;108938;1260;73079;-28
2023/11/26 02:56:50;;;;;;;6.40;3.60;;;;;;;-0.39;81.22;97055.92;109021;1260;74766;-27
2023/11/26 02:59:18;;;;;;;4.30;2.70;;;;;;;-0.66;82.53;97056.66;109079;1259;71438;-27
2023/11/26 03:01:47;;;;;;;6.90;4.30;;;;;;;-0.92;83.94;97056.34;108928;1260;58770;-27
2023/11/26 03:04:19;;;;;;;8.70;3.70;;;;;;;-0.99;84.72;97059.38;108848;1260;58742;-27
2023/11/26 03:06:48;;;;;;;3.50;2.40;;;;;;;-0.56;83.94;97054.63;108815;1260;73075;-27
2023/11/26 03:14:53;;;;;;;4.80;2.80;;;;;;;-0.20;80.91;97049.62;108965;1260;58783;-27
2023/11/26 03:17:22;;;;;;;;;;;;;;;-0.44;81.96;97053.16;109051;1259;58732;-28
2023/11/26 03:19:50;;;;;;;4.40;2.90;;;;;;;-0.52;82.47;97056.77;109038;1259;73024;-27
2023/11/26 03:22:18;;;;;;;10.20;4.00;;;;;;;-0.70;82.79;97057.48;109103;1259;74309;-27
2023/11/26 03:24:45;;;;;;;4.20;3.10;;;;;;;-0.87;83.88;97064.73;109044;1259;72641;-27
2023/11/26 03:27:13;;;;;;;6.10;4.30;;;;;;;-0.91;84.96;97070.11;109086;1259;60134;-27
2023/11/26 03:29:40;;;;;;;4.70;3.30;;;;;;;-0.13;82.54;97073.92;109016;1259;58829;-27
2023/11/26 03:32:09;;;;;;;6.20;4.10;;;;;;;0.12;80.38;97072.52;109000;1259;71830;-27
2023/11/26 03:34:37;;;;;;;6.50;3.80;;;;;;;-0.01;80.26;97066.62;108958;1259;73333;-27
2023/11/26 03:37:04;;;;;;;5.50;3.00;;;;;;;-0.34;81.49;97064.08;108997;1259;72628;-27
2023/11/26 03:39:36;;;;;;;8.00;4.90;;;;;;;-0.45;82.09;97061.59;109015;1260;58936;-27
2023/11/26 03:42:04;;;;;;;5.80;3.20;;;;;;;-0.60;82.98;97062.91;108920;1259;58770;-27
2023/11/26 03:44:46;;;;;;;7.20;4.10;;;;;;;-0.68;83.32;97072.86;109068;1259;73011;-27
2023/11/26 03:47:16;;;;;;;7.90;4.60;;;;;;;-0.92;84.69;97081.22;108918;1259;73119;-27
2023/11/26 03:49:44;;;;;;;4.00;3.00;;;;;;;-0.78;84.73;97084.05;108964;1260;71476;-27
2023/11/26 03:52:11;;;;;;;6.10;3.60;;;;;;;-0.07;81.84;97089.88;109014;1260;58835;-27
2023/11/26 03:54:39;;;;;;;5.90;4.10;;;;;;;-0.06;81.15;97089.12;108891;1260;60026;-28
2023/11/26 03:57:06;;;;;;;5.80;3.90;;;;;;;-0.20;81.41;97088.71;108969;1260;71838;-27
2023/11/26 03:59:41;;;;;;;4.40;3.60;;;;;;;-0.32;82.07;97086.79;109020;1260;73034;-27
2023/11/26 04:02:10;;;;;;;4.30;3.20;;;;;;;-0.46;82.56;97091.34;108916;1260;72468;-27
2023/11/26 04:04:37;;;;;;;9.30;5.10;;;;;;;-0.58;82.74;97095.52;109056;1259;58802;-27
2023/11/26 04:07:06;;;;;;;5.50;3.80;;;;;;;-0.78;83.82;97095.45;108923;1259;59222;-28
2023/11/26 04:09:34;;;;;;;4.50;3.20;;;;;;;-0.53;82.98;97100.30;108977;1260;73071;-27
2023/11/26 04:12:02;;;;;;;3.60;2.80;;;;;;;-0.29;81.92;97098.38;109002;1260;74344;-27
2023/11/26 04:14:31;;;;;;;5.70;3.30;;;;;;;-0.08;80.56;97102.41;108877;1260;72820;-27
2023/11/26 04:16:59;;;;;;;6.90;3.50;;;;;;;-0.14;80.97;97100.90;108923;1260;58884;-27
2023/11/26 04:19:27;;;;;;;3.70;2.60;;;;;;;-0.28;81.24;97101.17;109018;1259;60038;-27
2023/11/26 04:21:54;;;;;;;6.80;4.10;;;;;;;-0.58;82.55;97107.11;108982;1260;71763;-27
2023/11/26 04:24:23;;;;;;;5.70;4.00;;;;;;;-0.81;83.70;97105.25;108898;1260;74292;-27
2023/11/26 04:26:51;;;;;;;7.70;3.70;;;;;;;-0.92;84.20;97103.17;108938;1260;72777;-27
2023/11/26 04:29:19;;;;;;;3.00;2.40;;;;;;;-0.39;83.13;97108.56;108957;1261;58808;-27
2023/11/26 04:31:46;;;;;;;6.00;3.50;;;;;;;0.06;80.56;97109.26;108973;1260;58720;-27
2023/11/26 04:34:14;;;;;;;5.10;2.80;;;;;;;0.09;79.87;97105.81;108893;1260;73190;-28
2023/11/26 04:36:42;;;;;;;6.50;3.50;;;;;;;-0.15;80.39;97099.94;109179;1260;74276;-27
2023/11/26 04:39:09;;;;;;;8.60;3.50;;;;;;;-0.52;82.06;97096.33;109082;1257;71426;-27
2023/11/26 04:41:37;;;;;;;6.20;4.00;;;;;;;-0.64;82.55;97098.27;109028;1257;59287;-27
2023/11/26 04:44:04;;;;;;;4.50;4.00;;;;;;;-0.89;83.92;97098.73;109211;1257;60022;-27
2023/11/26 04:46:32;;;;;;;5.60;3.90;;;;;;;-0.85;84.38;97102.73;109218;1257;73188;-27
2023/11/26 04:49:00;;;;;;;4.90;3.10;;;;;;;-0.29;82.50;97096.84;109170;1257;74328;-27
2023/11/26 04:51:27;;;;;;;6.40;3.90;;;;;;;-0.00;80.54;97093.16;109061;1259;71687;-27
2023/11/26 04:53:55;;;;;;;6.90;3.60;;;;;;;0.03;80.13;97091.24;109180;1256;58951;-27
2023/11/26 04:56:23;;;;;;;8.00;4.50;;;;;;;-0.38;81.19;97087.91;109184;1257;58985;-27
2023/11/26 04:58:51;;;;;;;7.60;5.20;;;;;;;-0.46;81.79;97087.60;109174;1257;72551;-27
2023/11/26 05:01:18;;;;;;;5.60;3.40;;;;;;;-0.90;83.76;97093.90;109176;1258;74495;-28
2023/11/26 05:03:46;;;;;;;5.60;3.70;;;;;;;-0.95;84.33;97097.44;109017;1257;72655;-27
2023/11/26 05:06:14;;;;;;;7.80;4.00;;;;;;;-1.09;85.47;97090.83;109149;1259;60856;-27
2023/11/26 05:08:42;;;;;;;6.50;4.40;;;;;;;-0.60;83.45;97084.57;109104;1257;60088;-27
2023/11/26 05:11:10;;;;;;;7.90;4.10;;;;;;;-0.21;81.70;97084.33;109097;1257;73871;-27
2023/11/26 05:13:38;;;;;;;5.70;3.70;;;;;;;-0.37;81.85;97085.95;109128;1257;72218;-27
2023/11/26 05:16:06;;;;;;;8.90;3.80;;;;;;;-0.45;81.99;97083.58;109154;1259;72676;-27
2023/11/26 05:18:33;;;;;;;5.20;3.40;;;;;;;-0.54;82.02;97086.20;109086;1259;58857;-27
2023/11/26 05:21:02;;;;;;;9.70;3.80;;;;;;;-0.71;82.85;97088.89;109073;1257;58767;-27
2023/11/26 05:23:29;;;;;;;4.30;3.20;;;;;;;-1.02;84.61;97096.73;109073;1258;72675;-27
2023/11/26 05:25:57;;;;;;;5.00;3.80;;;;;;;-0.62;84.01;97094.57;109064;1258;74337;-27
2023/11/26 05:28:25;;;;;;;3.80;3.40;;;;;;;-0.43;82.25;97090.43;109032;1258;71428;-27
2023/11/26 05:30:52;;;;;;;5.60;4.10;;;;;;;-0.21;81.33;97092.66;109020;1257;59269;-27
2023/11/26 05:33:20;;;;;;;8.40;4.40;;;;;;;-0.45;81.49;97087.14;109026;1259;58977;-27
2023/11/26 05:35:48;;;;;;;10.10;4.90;;;;;;;-0.74;83.00;97090.63;109102;1260;73833;-27
2023/11/26 05:38:15;;;;;;;8.10;3.60;;;;;;;-0.85;83.81;97094.77;109059;1258;74300;-27
2023/11/26 05:40:43;;;;;;;5.40;4.30;;;;;;;-0.96;84.27;97087.78;109095;1258;72661;-27
2023/11/26 05:43:11;;;;;;;6.20;4.30;;;;;;;-0.78;84.26;97082.18;109030;1257;58798;-27
2023/11/26 05:45:38;;;;;;;4.10;3.40;;;;;;;-0.30;81.91;97087.67;109053;1258;60034;-27
2023/11/26 05:48:06;;;;;;;7.40;4.40;;;;;;;-0.43;81.73;97084.14;109099;1258;73834;-27
2023/11/26 05:50:34;;;;;;;5.30;4.50;;;;;;;-0.57;82.01;97082.15;109026;1258;73205;-27
2023/11/26 05:53:02;;;;;;;5.90;3.70;;;;;;;-0.67;82.77;97078.59;109093;1258;72621;-27
2023/11/26 05:55:31;;;;;;;8.00;3.80;;;;;;;-0.70;82.61;97078.23;109064;1257;58876;-27
2023/11/26 05:57:59;;;;;;;7.60;5.30;;;;;;;-0.91;83.73;97075.21;109036;1259;58739;-27
2023/11/26 06:00:26;;;;;;;6.60;4.00;;;;;;;-1.06;84.62;97073.77;109095;1258;73942;-27
2023/11/26 06:02:55;;;;;;;5.90;3.40;;;;;;;-0.63;82.93;97078.85;109015;1258;74540;-27
2023/11/26 06:05:23;;;;;;;5.90;4.60;;;;;;;-0.45;81.99;97083.41;109107;1259;72665;-27
2023/11/26 06:07:51;;;;;;;11.00;5.20;;;;;;;-0.49;82.18;97095.10;109071;1261;59081;-27
2023/11/26 06:10:19;;;;;;;6.30;4.10;;;;;;;-0.61;82.32;97102.17;109120;1259;58725;-28
2023/11/26 06:12:46;;;;;;;7.20;4.00;;;;;;;-0.58;82.01;97103.05;109092;1258;73855;-27
2023/11/26 06:15:14;;;;;;;5.70;4.10;;;;;;;-0.74;82.92;97102.02;109044;1259;73232;-27
2023/11/26 06:17:42;;;;;;;8.60;4.50;;;;;;;-0.90;83.73;97103.05;109013;1257;71454;-27
2023/11/26 06:20:11;;;;;;;5.00;4.20;;;;;;;-0.80;84.18;97108.74;109003;1259;59269;-27
2023/11/26 06:22:39;;;;;;;6.80;4.10;;;;;;;-0.42;82.54;97109.46;109006;1258;58810;-27
2023/11/26 06:25:10;;;;;;;9.00;4.50;;;;;;;-0.17;80.83;97108.80;109086;1259;73898;-28
2023/11/26 06:27:38;;;;;;;5.40;4.00;;;;;;;-0.29;81.06;97103.81;108981;1258;74342;-27
2023/11/26 06:30:06;;;;;;;5.60;3.50;;;;;;;-0.55;82.21;97096.70;109042;1259;72678;-27
2023/11/26 06:32:35;;;;;;;5.30;4.40;;;;;;;-0.68;82.97;97100.27;108975;1257;59466;-27
2023/11/26 06:35:03;;;;;;;5.50;4.00;;;;;;;-0.82;83.56;97106.83;109070;1259;58789;-27
2023/11/26 06:37:31;;;;;;;6.20;4.80;;;;;;;-0.85;84.31;97107.48;108990;1259;72536;-27
2023/11/26 06:39:59;;;;;;;5.20;3.70;;;;;;;-0.43;82.55;97098.29;109007;1259;74140;-27
2023/11/26 06:42:27;;;;;;;5.00;3.90;;;;;;;-0.12;81.06;97098.22;108928;1264;72376;-27
2023/11/26 06:44:55;;;;;;;4.10;3.10;;;;;;;-0.14;80.77;97089.15;109075;1258;59279;-27
2023/11/26 06:47:28;;;;;;;4.60;3.20;;;;;;;-0.30;81.35;97083.58;109077;1258;60129;-27
2023/11/26 06:49:57;;;;;;;10.00;5.30;;;;;;;-0.53;82.32;97076.77;108922;1258;74022;-27
2023/11/26 06:52:25;;;;;;;5.60;3.40;;;;;;;-0.74;83.37;97071.50;109042;1259;74496;-27
2023/11/26 06:54:52;;;;;;;9.50;4.60;;;;;;;-0.77;83.70;97075.98;109053;1259;72719;-27
2023/11/26 06:57:20;;;;;;;4.50;3.70;;;;;;;-0.60;83.10;97074.55;109093;1258;58917;-27
2023/11/26 06:59:48;;;;;;;7.70;3.80;;;;;;;-0.19;81.99;97083.18;109071;1260;60013;-27
2023/11/26 07:02:16;;;;;;;9.80;5.50;;;;;;;-0.10;81.31;97079.64;109022;1260;73824;-27
2023/11/26 07:04:45;;;;;;;6.90;4.10;;;;;;;-0.30;81.35;97075.08;108960;1259;74310;-27
2023/11/26 07:07:13;;;;;;;7.40;4.60;;;;;;;-0.39;82.17;97072.59;109067;1260;72917;-27
2023/11/26 07:09:41;;;;;;;8.20;4.70;;;;;;;-0.67;82.86;97075.50;109023;1259;59243;-27
2023/11/26 07:12:09;;;;;;;5.60;3.70;;;;;;;-0.84;84.58;97077.50;109053;1259;59119;-27
2023/11/26 07:14:36;;;;;;;6.50;3.90;;;;;;;-0.19;82.72;97077.59;108981;1258;73808;-27
2023/11/26 07:17:06;;;;;;;5.70;3.80;;;;;;;-0.04;80.85;97074.16;109006;1258;74470;-27
2023/11/26 07:19:34;;;;;;;6.40;4.00;;;;;;;0.10;80.47;97077.13;108988;1259;72680;-27
2023/11/26 07:22:02;;;;;;;5.10;3.80;;;;;;;-0.07;80.39;97074.31;109036;1257;59265;-27
2023/11/26 07:24:30;;;;;;;5.60;4.20;;;;;;;-0.52;82.11;97074.15;109085;1258;58778;-27
2023/11/26 07:26:59;;;;;;;6.70;4.90;;;;;;;-0.37;81.77;97073.69;109030;1259;72403;-27
2023/11/26 07:29:34;;;;;;;7.80;5.10;;;;;;;-0.83;83.26;97069.41;108987;1259;73467;-27
2023/11/26 07:32:03;;;;;;;6.00;4.30;;;;;;;-0.82;83.84;97068.99;108975;1259;71390;-27
2023/11/26 07:34:33;;;;;;;7.20;5.20;;;;;;;-0.46;82.53;97065.94;108853;1266;58839;-27
2023/11/26 07:37:05;;;;;;;6.30;4.10;;;;;;;-0.48;82.34;97057.00;108984;1259;59998;-27
2023/11/26 07:39:35;;;;;;;5.20;3.60;;;;;;;-0.35;81.33;97052.02;108896;1259;73839;-27
2023/11/26 07:42:05;;;;;;;5.50;4.50;;;;;;;-0.52;82.30;97045.36;109020;1259;73351;-27
2023/11/26 07:44:36;;;;;;;7.20;4.30;;;;;;;-0.83;83.65;97042.48;108900;1260;72684;-27
2023/11/26 07:47:06;;;;;;;5.60;3.90;;;;;;;-1.00;85.18;97048.87;108936;1259;59243;-27
2023/11/26 07:49:36;;;;;;;5.60;3.60;;;;;;;-0.81;84.27;97050.89;108949;1259;58819;-27
2023/11/26 07:52:06;;;;;;;7.30;4.60;;;;;;;-0.29;82.28;97054.84;108981;1259;72582;-27
2023/11/26 07:54:35;;;;;;;7.00;4.70;;;;;;;-0.45;82.25;97055.98;108956;1259;74351;-27
2023/11/26 07:57:06;;;;;;;8.00;5.40;;;;;;;-0.55;82.66;97052.02;108901;1259;72744;-27
2023/11/26 07:59:36;;;;;;;6.60;5.10;;;;;;;-0.57;82.92;97051.98;108992;1259;59265;-27
2023/11/26 08:02:08;;;;;;;6.30;4.00;;;;;;;-0.65;83.23;97053.04;109004;1259;58794;-27
2023/11/26 08:04:40;;;;;;;4.50;3.50;;;;;;;-0.88;84.44;97052.31;109046;1259;73951;-28
2023/11/26 08:07:09;;;;;;;7.60;5.10;;;;;;;-0.52;84.11;97058.61;108994;1259;76386;-27
2023/11/26 08:09:39;;;;;;;8.10;4.40;;;;;;;-0.04;81.61;97056.04;108974;1259;73743;-27
2023/11/26 08:12:13;;;;;;;5.30;4.20;;;;;;;-0.02;81.29;97053.54;108962;1265;59756;-27
2023/11/26 08:14:44;;;;;;;9.80;6.10;;;;;;;-0.21;80.93;97048.35;108975;1259;60001;-27
2023/11/26 08:17:18;;;;;;;9.70;5.80;;;;;;;-0.65;83.50;97046.73;108984;1259;73937;-27
2023/11/26 08:19:50;;;;;;;7.30;5.00;;;;;;;-0.74;84.21;97046.33;109023;1259;73045;-27
2023/11/26 08:22:20;;;;;;;5.00;4.00;;;;;;;-0.79;84.69;97044.74;108905;1259;72657;-27
2023/11/26 08:24:52;;;;;;;15.00;7.40;;;;;;;-0.70;84.52;97047.02;108976;1259;58901;-27
2023/11/26 08:35:01;;;;;;;11.20;6.60;;;;;;;-0.34;82.60;97042.96;102668;1294;600031;-27
2023/11/26 08:37:30;;;;;;;8.30;4.90;;;;;;;-0.61;83.78;97039.61;105067;1269;61321;-27
2023/11/26 08:39:57;;;;;;;6.20;4.80;;;;;;;-0.61;84.18;97042.36;105070;1266;61021;-27
2023/11/26 08:42:25;;;;;;;7.70;5.60;;;;;;;-0.14;82.44;97040.34;105035;1269;72320;-27
2023/11/26 08:44:56;;;;;;;11.40;6.50;;;;;;;-0.10;81.21;97040.40;105042;1269;74320;-27
2023/11/26 08:47:28;;;;;;;7.20;5.00;;;;;;;-0.27;81.90;97040.59;104846;1267;72418;-27
2023/11/26 08:49:57;;;;;;;7.20;4.50;;;;;;;-0.35;81.88;97039.27;102419;1269;61192;-27
2023/11/26 08:52:28;;;;;;;6.30;4.30;;;;;;;-0.58;82.58;97040.48;105242;1266;72188;-27
2023/11/26 08:54:55;;;;;;;8.90;6.30;;;;;;;-0.74;83.59;97041.20;104911;1269;74375;-27
2023/11/26 08:57:23;;;;;;;7.30;4.50;;;;;;;-0.72;84.20;97038.35;105148;1263;72665;-27
2023/11/26 08:59:51;;;;;;;7.80;4.40;;;;;;;-0.31;82.05;97029.45;105172;1264;61100;-27
2023/11/26 09:02:19;;;;;;;9.10;5.20;;;;;;;-0.19;81.32;97034.59;104975;1270;61218;-27
2023/11/26 09:12:27;;;;;;;5.10;4.00;;;;;;;-0.53;81.10;97013.91;103239;1285;600085;-27
2023/11/26 09:14:58;;;;;;;4.70;2.80;;;;;;;-0.62;80.10;97016.02;104889;1267;61168;-27
2023/11/26 09:17:26;;;;;;;4.90;3.90;;;;;;;-0.20;79.42;97006.02;104855;1268;61100;-27
2023/11/26 09:19:54;;;;;;;6.90;4.30;;;;;;;-0.30;79.13;97006.48;105054;1269;72233;-28
2023/11/26 09:22:23;;;;;;;4.70;3.70;;;;;;;-0.26;78.92;97004.37;104875;1267;74292;-27
2023/11/26 09:24:52;;;;;;;6.40;4.00;;;;;;;-0.41;78.43;96992.77;103730;1270;3648475;-27
2023/11/26 09:27:20;;;;;;;6.50;4.80;;;;;;;-0.60;79.02;96987.59;104942;1267;61149;-27
2023/11/26 09:29:48;;;;;;;4.10;3.10;;;;;;;-0.69;79.45;96988.87;105116;1269;61067;-27
2023/11/26 09:32:16;;;;;;;5.40;3.40;;;;;;;-0.62;79.29;96982.23;104889;1264;61243;-28
2023/11/26 09:34:43;;;;;;;5.10;3.80;;;;;;;-0.39;78.15;96981.54;105134;1267;72248;-27
2023/11/26 09:44:51;;;;;;;5.70;3.40;;;;;;;-0.62;78.80;96975.95;103426;1283;599956;-28
2023/11/26 09:47:20;;;;;;;5.50;4.20;;;;;;;-0.60;78.43;96978.55;104906;1265;61170;-27
2023/11/26 09:49:51;;;;;;;6.10;4.40;;;;;;;-0.85;79.10;96980.75;104885;1269;61464;-27
2023/11/26 09:52:19;;;;;;;5.10;3.40;;;;;;;-0.59;78.40;96982.23;104928;1263;72264;-27
2023/11/26 09:54:50;;;;;;;5.90;4.00;;;;;;;-0.27;77.82;96984.45;104904;1263;72154;-27
2023/11/26 09:57:18;;;;;;;3.70;2.90;;;;;;;-0.31;77.81;96987.44;102804;1266;3497368;-28
2023/11/26 09:59:46;;;;;;;4.20;3.10;;;;;;;-0.35;77.65;96992.04;105115;1263;61193;-27
2023/11/26 10:08:36;;;;;;;7.30;4.60;;;;;;;-0.69;79.18;96984.43;102572;1292;600174;-27
2023/11/26 10:11:04;;;;;;;10.70;5.50;;;;;;;-0.29;77.89;96981.87;104857;1266;61129;-27
2023/11/26 10:13:39;;;;;;;6.70;3.70;;;;;;;-0.28;77.38;96983.73;104783;1268;61103;-27
2023/11/26 10:16:08;;;;;;;7.00;3.80;;;;;;;-0.18;77.53;96979.60;104800;1266;72603;-27
2023/11/26 10:18:40;;;;;;;13.20;6.30;;;;;;;-0.20;77.41;96979.20;104835;1269;72758;-27
2023/11/26 10:21:08;;;;;;;12.10;6.10;;;;;;;-0.49;78.37;96973.35;102142;1273;3626984;-28
2023/11/26 10:23:37;;;;;;;15.30;6.40;;;;;;;-0.59;79.05;96974.42;104605;1264;61203;-27
2023/11/26 10:26:19;;;;;;;11.50;4.90;;;;;;;-0.31;78.94;96975.07;104870;1266;72226;-26
2023/11/26 10:36:34;;;;;;;7.20;4.50;;;;;;;0.07;76.97;96963.52;102702;1294;599956;-25
2023/11/26 10:39:04;;;;;;;15.10;6.00;;;;;;;-0.17;77.87;96960.73;104889;1270;62670;-25
2023/11/26 10:41:34;;;;;;;5.20;3.80;;;;;;;-0.27;77.84;96960.73;104906;1265;61177;-27
2023/11/26 10:44:01;;;;;;;7.10;3.80;;;;;;;-0.34;77.35;96960.38;104902;1270;70979;-26
2023/11/26 10:46:33;;;;;;;6.00;3.70;;;;;;;-0.27;78.12;96960.91;104862;1270;74278;-26
2023/11/26 10:49:21;;;;;;;4.30;3.00;;;;;;;0.24;76.46;96954.27;102318;1272;3717175;-26
2023/11/26 10:59:37;;;;;;;6.30;3.20;;;;;;;0.07;75.09;96949.98;102602;1292;600165;-29
2023/11/26 11:02:04;;;;;;;6.10;3.40;;;;;;;0.06;74.82;96948.71;104819;1267;61178;-28
2023/11/26 11:04:33;;;;;;;6.10;4.10;;;;;;;-0.10;75.08;96946.30;104895;1270;61155;-27
2023/11/26 11:07:00;;;;;;;9.50;4.80;;;;;;;-0.22;75.46;96942.20;104873;1268;70982;-27
2023/11/26 11:09:35;;;;;;;9.30;5.60;;;;;;;-0.40;75.87;96942.41;104783;1272;74395;-28
2023/11/26 11:12:07;;;;;;;5.00;3.00;;;;;;;-0.62;76.39;96944.41;102887;1270;3592091;-26
2023/11/26 11:22:12;;;;;;;5.00;2.90;;;;;;;-0.39;78.21;96942.54;102618;1290;600078;-27
2023/11/26 11:32:19;;;;;;;6.60;3.80;;;;;;;-0.01;78.48;96936.08;102612;1293;600139;-27
2023/11/26 11:34:47;;;;;;;7.70;4.40;;;;;;;-0.16;78.74;96934.05;104822;1269;61128;-27
2023/11/26 11:37:15;;;;;;;4.50;3.60;;;;;;;-0.44;80.03;96928.02;104819;1266;61250;-27
2023/11/26 11:39:50;;;;;;;6.40;3.90;;;;;;;-0.65;81.45;96927.98;104869;1271;71214;-27
2023/11/26 11:42:27;;;;;;;6.30;3.80;;;;;;;-0.77;82.58;96925.38;104844;1272;73116;-27
2023/11/26 11:44:56;;;;;;;8.20;4.30;;;;;;;-0.74;82.91;96924.48;102146;1264;3571589;-28
2023/11/26 11:47:44;;;;;;;5.80;4.10;;;;;;;-0.47;81.71;96924.27;104889;1272;61285;-27
2023/11/26 11:50:14;;;;;;;6.80;4.50;;;;;;;-0.33;80.79;96923.52;105172;1269;61045;-27
2023/11/26 11:52:43;;;;;;;6.20;4.30;;;;;;;-0.46;80.75;96922.35;105204;1266;72270;-27
2023/11/26 11:55:29;;;;;;;11.60;6.40;;;;;;;-0.46;81.23;96927.30;104935;1269;73220;-26
2023/11/26 11:57:57;;;;;;;10.80;4.70;;;;;;;-0.58;81.59;96927.48;104880;1264;71393;-28
2023/11/26 12:00:25;;;;;;;8.60;5.90;;;;;;;-0.44;80.60;96925.96;105126;1269;61317;-27
2023/11/26 12:02:52;;;;;;;7.30;3.80;;;;;;;-0.42;79.43;96929.73;104819;1265;61657;-27
2023/11/26 12:05:25;;;;;;;7.20;4.40;;;;;;;-0.52;79.56;96932.84;105142;1264;71822;-27
2023/11/26 12:15:32;;;;;;;6.50;3.90;;;;;;;-0.92;83.17;96943.21;102609;1292;600199;-25
2023/11/26 12:18:00;;;;;;;4.50;3.50;;;;;;;-0.68;82.02;96948.95;105009;1266;61177;-27
2023/11/26 12:20:28;;;;;;;13.20;7.10;;;;;;;-0.62;80.10;96944.47;105077;1267;61109;-27
2023/11/26 12:22:56;;;;;;;4.50;3.20;;;;;;;-0.55;78.96;96943.48;105030;1269;72229;-28
2023/11/26 12:32:30;;;;;;;6.30;3.00;;;;;;;-0.96;75.61;96956.84;102757;1290;599587;-27
2023/11/26 12:35:00;;;;;;;5.30;3.30;;;;;;;-1.14;75.37;96966.33;105054;1266;61288;-27
2023/11/26 12:37:29;;;;;;;5.80;3.70;;;;;;;-1.01;74.45;96964.65;104829;1272;61180;-27
2023/11/26 12:39:56;;;;;;;5.70;3.00;;;;;;;-0.79;73.74;96985.48;104942;1264;72185;-27
2023/11/26 12:50:05;;;;;;;7.90;5.00;;;;;;;-0.69;72.20;97008.48;102675;1292;600232;-26
2023/11/26 13:00:16;;;;;;;4.60;3.00;;;;;;;-1.16;74.90;97029.83;102634;1293;600216;-26
2023/11/26 13:02:48;;;;;;;4.60;3.10;;;;;;;-0.91;74.14;97042.67;104883;1267;61177;-28
2023/11/26 13:05:24;;;;;;;4.00;2.40;;;;;;;-0.71;72.59;97043.21;104862;1267;61102;-27
2023/11/26 13:07:53;;;;;;;5.70;2.70;;;;;;;-0.75;71.57;97046.17;104865;1266;72222;-27
2023/11/26 13:10:58;;;;;;;5.90;3.40;;;;;;;-0.80;71.06;97049.45;104839;1270;74747;-26
2023/11/26 13:13:32;;;;;;;4.50;2.50;;;;;;;-0.93;70.94;97051.20;102272;1263;3583738;-27
2023/11/26 13:16:02;;;;;;;4.80;2.70;;;;;;;-1.04;69.83;97044.69;104789;1263;61126;-27
2023/11/26 13:18:31;;;;;;;4.90;2.90;;;;;;;-1.19;69.68;97044.66;104887;1269;61157;-27
2023/11/26 13:21:01;;;;;;;6.10;2.80;;;;;;;-1.27;69.78;97034.29;104850;1268;71007;-27
2023/11/26 13:23:29;;;;;;;5.70;3.50;;;;;;;-1.31;69.47;97036.77;105080;1266;74322;-27
2023/11/26 13:25:58;;;;;;;3.30;2.10;;;;;;;-1.27;69.37;97035.11;104759;1264;72778;-27
2023/11/26 13:28:28;;;;;;;6.40;4.10;;;;;;;-1.31;69.66;97036.77;105802;1260;61145;-27
2023/11/26 13:30:59;;;;;;;6.50;3.00;;;;;;;-1.41;69.87;97035.85;105691;1255;61103;-27